createdAt,value
2023-05-21T00:02:01.346Z,100012.31
2023-05-21T00:04:31.772Z,100007.47
2023-05-21T00:06:59.853Z,100004.63
2023-05-21T00:09:28.004Z,100009.66
2023-05-21T00:11:56.212Z,100014.56
2023-05-21T00:14:25.770Z,100021.72
2023-05-21T00:16:53.966Z,100016.38
2023-05-21T00:19:22.448Z,100019.41
2023-05-21T00:21:50.629Z,100019.94
2023-05-21T00:24:18.819Z,100016.84
2023-05-21T00:26:46.982Z,100019.06
2023-05-21T00:29:15.082Z,100019.31
2023-05-21T00:31:44.726Z,100025.47
2023-05-21T00:34:14.516Z,100023.66
2023-05-21T00:36:45.573Z,100025.88
2023-05-21T00:39:13.826Z,100027.69
2023-05-21T00:41:43.213Z,100016.81
2023-05-21T00:44:14.268Z,100023.13
2023-05-21T00:46:44.747Z,100018.75
2023-05-21T00:49:14.939Z,100010.69
2023-05-21T00:51:45.379Z,100014.47
2023-05-21T00:54:13.801Z,100011.28
2023-05-21T00:56:42.773Z,100003.44
2023-05-21T00:59:10.996Z,100006.25
2023-05-21T01:01:39.290Z,100013.00
2023-05-21T01:04:08.853Z,100024.63
2023-05-21T01:06:37.897Z,100008.16
2023-05-21T01:09:07.439Z,100009.41
2023-05-21T01:11:41.113Z,100001.28
2023-05-21T01:14:11.339Z,99999.34
2023-05-21T01:16:42.441Z,100000.31
2023-05-21T01:19:16.663Z,99999.03
2023-05-21T01:21:47.986Z,99991.06
2023-05-21T01:24:17.587Z,99996.97
2023-05-21T01:26:46.803Z,99998.06
2023-05-21T01:29:15.986Z,99998.59
2023-05-21T01:31:55.601Z,100001.50
2023-05-21T01:34:29.695Z,100001.34
2023-05-21T01:37:03.626Z,99996.69
2023-05-21T01:39:36.487Z,99999.84
2023-05-21T01:42:07.317Z,99999.00
2023-05-21T01:44:36.936Z,100010.00
2023-05-21T01:47:06.639Z,100004.69
2023-05-21T01:49:35.346Z,100013.28
2023-05-21T01:52:04.027Z,99999.66
2023-05-21T01:54:33.548Z,99993.34
2023-05-21T01:57:01.810Z,100002.69
2023-05-21T01:59:30.154Z,99996.50
2023-05-21T02:01:58.331Z,99998.44
2023-05-21T02:04:26.507Z,99997.22
2023-05-21T02:06:55.004Z,100008.84
2023-05-21T02:09:23.161Z,100001.59
2023-05-21T02:11:52.702Z,99998.47
2023-05-21T02:14:20.911Z,100008.00
2023-05-21T02:16:48.995Z,100000.16
2023-05-21T02:19:17.467Z,99995.22
2023-05-21T02:21:46.128Z,99998.22
2023-05-21T02:24:15.254Z,99993.88
2023-05-21T02:26:43.583Z,99988.56
2023-05-21T02:29:13.032Z,99986.63
2023-05-21T02:31:41.364Z,99991.94
2023-05-21T02:34:09.478Z,99990.03
2023-05-21T02:36:37.631Z,99994.59
2023-05-21T02:39:05.737Z,99989.03
2023-05-21T02:41:33.826Z,99991.34
2023-05-21T02:44:01.929Z,99982.50
2023-05-21T02:46:31.406Z,99984.09
2023-05-21T02:48:59.610Z,99990.50
2023-05-21T02:51:27.782Z,99990.25
2023-05-21T02:53:55.878Z,99990.50
2023-05-21T02:56:24.968Z,99994.97
2023-05-21T02:58:53.569Z,99990.50
2023-05-21T03:01:21.793Z,99996.53
2023-05-21T03:03:51.272Z,99995.56
2023-05-21T03:06:20.801Z,99996.53
2023-05-21T03:08:48.993Z,99998.47
2023-05-21T03:11:17.175Z,99988.81
2023-05-21T03:13:45.328Z,99986.72
2023-05-21T03:16:14.290Z,99984.19
2023-05-21T03:18:43.440Z,99992.78
2023-05-21T03:21:13.445Z,99981.16
2023-05-21T03:23:41.959Z,99984.19
2023-05-21T03:26:10.258Z,99978.63
2023-05-21T03:28:38.440Z,99977.44
2023-05-21T03:31:06.650Z,99981.63
2023-05-21T03:33:34.726Z,99982.00
2023-05-21T03:36:02.841Z,99987.56
2023-05-21T03:38:32.311Z,99984.38
2023-05-21T03:41:00.417Z,99995.13
2023-05-21T03:43:28.535Z,99994.28
2023-05-21T03:45:56.850Z,99988.31
2023-05-21T03:48:24.965Z,99982.81
2023-05-21T03:50:53.104Z,99988.19
2023-05-21T03:53:21.320Z,99985.63
2023-05-21T03:55:55.406Z,100004.34
2023-05-21T03:58:23.795Z,99992.25
2023-05-21T04:00:51.995Z,100000.63
2023-05-21T04:03:20.289Z,99990.06
2023-05-21T04:05:48.825Z,99999.25
2023-05-21T04:08:17.278Z,99995.38
2023-05-21T04:10:45.628Z,100001.16
2023-05-21T04:13:15.223Z,100001.38
2023-05-21T04:15:44.559Z,100005.44
2023-05-21T04:18:13.742Z,100005.78
2023-05-21T04:20:41.972Z,100009.19
2023-05-21T04:23:10.472Z,100003.88
2023-05-21T04:25:39.023Z,100000.63
2023-05-21T04:28:07.403Z,100002.78
2023-05-21T04:30:36.891Z,100007.72
2023-05-21T04:33:05.292Z,100004.66
2023-05-21T04:35:33.491Z,99996.28
2023-05-21T04:38:04.164Z,99999.59
2023-05-21T04:40:32.910Z,100000.63
2023-05-21T04:43:04.812Z,100011.75
2023-05-21T04:45:32.930Z,99999.16
2023-05-21T04:48:03.096Z,100002.69
2023-05-21T04:50:31.837Z,99988.84
2023-05-21T04:53:00.049Z,99992.69
2023-05-21T04:55:29.054Z,99993.56
2023-05-21T04:57:57.544Z,99996.59
2023-05-21T05:00:27.908Z,99991.59
2023-05-21T05:02:56.300Z,100000.00
2023-05-21T05:05:25.884Z,99984.94
2023-05-21T05:07:53.988Z,99993.84
2023-05-21T05:10:22.088Z,99986.16
2023-05-21T05:12:50.230Z,99985.75
2023-05-21T05:15:18.385Z,99986.91
2023-05-21T05:17:48.411Z,99986.41
2023-05-21T05:20:16.720Z,99981.88
2023-05-21T05:22:46.232Z,99984.50
2023-05-21T05:25:14.370Z,99977.16
2023-05-21T05:27:42.443Z,99975.97
2023-05-21T05:30:11.318Z,99984.72
2023-05-21T05:32:39.557Z,99984.38
2023-05-21T05:35:09.130Z,99985.66
2023-05-21T05:37:37.263Z,99986.53
2023-05-21T05:40:08.391Z,99991.66
2023-05-21T05:42:36.515Z,99991.16
2023-05-21T05:45:04.894Z,99992.13
2023-05-21T05:47:33.048Z,99991.22
2023-05-21T05:50:01.321Z,99993.56
2023-05-21T05:52:29.424Z,100001.16
2023-05-21T05:54:57.675Z,99985.13
2023-05-21T05:57:27.417Z,99988.50
2023-05-21T05:59:56.459Z,99988.41
2023-05-21T06:02:24.887Z,99979.56
2023-05-21T06:04:53.228Z,99980.16
2023-05-21T06:07:22.065Z,99977.88
2023-05-21T06:09:50.149Z,99980.22
2023-05-21T06:12:18.341Z,99975.91
2023-05-21T06:14:49.198Z,99975.53
2023-05-21T06:17:17.471Z,99976.25
2023-05-21T06:19:46.212Z,99978.13
2023-05-21T06:22:14.282Z,99980.94
2023-05-21T06:24:42.447Z,99973.81
2023-05-21T06:27:10.540Z,99973.53
2023-05-21T06:29:38.713Z,99966.91
2023-05-21T06:32:09.280Z,99958.44
2023-05-21T06:34:37.437Z,99967.69
2023-05-21T06:37:05.739Z,99960.13
2023-05-21T06:39:33.890Z,99956.00
2023-05-21T06:42:02.188Z,99949.03
2023-05-21T06:44:30.478Z,99945.88
2023-05-21T06:46:58.613Z,99953.69
2023-05-21T06:49:28.464Z,99957.59
2023-05-21T06:51:56.618Z,99949.78
2023-05-21T06:54:26.805Z,99952.47
2023-05-21T06:56:55.215Z,99937.41
2023-05-21T06:59:23.487Z,99950.34
2023-05-21T07:01:51.567Z,99945.22
2023-05-21T07:04:19.695Z,99940.28
2023-05-21T07:06:49.464Z,99949.78
2023-05-21T07:09:18.392Z,99946.66
2023-05-21T07:11:46.508Z,99941.00
2023-05-21T07:14:14.585Z,99944.19
2023-05-21T07:16:42.743Z,99946.81
2023-05-21T07:19:28.416Z,99944.38
2023-05-21T07:21:59.078Z,99944.47
2023-05-21T07:24:27.867Z,99947.78
2023-05-21T07:26:56.133Z,99940.81
2023-05-21T07:29:24.267Z,99929.13
2023-05-21T07:31:52.452Z,99934.63
2023-05-21T07:34:20.684Z,99928.78
2023-05-21T07:36:48.870Z,99929.63
2023-05-21T07:39:18.674Z,99926.22
2023-05-21T07:41:47.021Z,99944.75
2023-05-21T07:44:15.255Z,99927.41
2023-05-21T07:46:43.457Z,99935.91
2023-05-21T07:49:16.876Z,99935.53
2023-05-21T07:51:45.782Z,99928.44
2023-05-21T07:54:13.955Z,99930.06
2023-05-21T07:56:43.518Z,99933.13
2023-05-21T07:59:13.369Z,99925.94
2023-05-21T08:01:43.541Z,99916.81
2023-05-21T08:04:11.969Z,99925.66
2023-05-21T08:06:40.175Z,99924.31
2023-05-21T08:09:08.424Z,99917.59
2023-05-21T08:11:36.512Z,99929.41
2023-05-21T08:14:06.104Z,99939.03
2023-05-21T08:16:34.277Z,99931.69
2023-05-21T08:19:02.410Z,99929.19
2023-05-21T08:21:30.882Z,99928.88
2023-05-21T08:24:00.441Z,99928.53
2023-05-21T08:26:28.642Z,99934.41
2023-05-21T08:28:56.921Z,99935.91
2023-05-21T08:31:26.478Z,99927.81
2023-05-21T08:33:56.574Z,99927.56
2023-05-21T08:36:26.132Z,99927.44
2023-05-21T08:38:54.347Z,99929.81
2023-05-21T08:41:24.493Z,99934.19
2023-05-21T08:43:57.914Z,99937.56
2023-05-21T08:46:33.529Z,99928.72
2023-05-21T08:49:04.514Z,99932.69
2023-05-21T08:51:32.670Z,99929.63
2023-05-21T08:54:02.997Z,99925.94
2023-05-21T08:56:33.253Z,99929.81
2023-05-21T08:59:03.022Z,99926.72
2023-05-21T09:01:34.714Z,99931.91
2023-05-21T09:04:18.939Z,99921.41
2023-05-21T09:06:48.540Z,99932.88
2023-05-21T09:09:26.190Z,99929.97
2023-05-21T09:11:54.582Z,99919.25
2023-05-21T09:14:24.551Z,99922.88
2023-05-21T09:16:54.126Z,99924.28
2023-05-21T09:19:22.533Z,99916.19
2023-05-21T09:21:52.727Z,99911.00
2023-05-21T09:24:23.890Z,99929.09
2023-05-21T09:26:52.684Z,99911.44
2023-05-21T09:29:20.935Z,99937.59
2023-05-21T09:31:49.189Z,99912.13
2023-05-21T09:34:18.783Z,99928.75
2023-05-21T09:36:47.374Z,99920.41
2023-05-21T09:39:29.053Z,99910.16
2023-05-21T09:41:58.385Z,99917.50
2023-05-21T09:44:26.694Z,99919.09
2023-05-21T09:46:59.693Z,99926.69
2023-05-21T09:49:29.320Z,99920.88
2023-05-21T09:51:58.052Z,99920.88
2023-05-21T09:54:26.291Z,99906.59
2023-05-21T09:56:54.586Z,99911.41
2023-05-21T09:59:23.107Z,99914.75
2023-05-21T10:01:53.212Z,99920.25
2023-05-21T10:04:23.133Z,99915.22
2023-05-21T10:06:53.716Z,99913.81
2023-05-21T10:09:22.535Z,99906.56
2023-05-21T10:11:53.902Z,99900.22
2023-05-21T10:14:22.765Z,99903.00
2023-05-21T10:16:53.986Z,99905.63
2023-05-21T10:19:26.980Z,99916.53
2023-05-21T10:21:58.014Z,99896.50
2023-05-21T10:24:26.962Z,99896.91
2023-05-21T10:26:55.487Z,99889.53
2023-05-21T10:29:25.244Z,99900.41
2023-05-21T10:31:54.320Z,99895.06
2023-05-21T10:34:24.654Z,99898.88
2023-05-21T10:36:56.920Z,99896.91
2023-05-21T10:39:27.427Z,99902.09
2023-05-21T10:42:04.473Z,99893.00
2023-05-21T10:44:42.107Z,99891.16
2023-05-21T10:47:31.793Z,99887.78
2023-05-21T10:50:16.268Z,99895.53
2023-05-21T10:53:02.427Z,99896.81
2023-05-21T10:55:44.268Z,99883.88
2023-05-21T10:58:33.805Z,99876.47
2023-05-21T11:01:03.842Z,99874.09
2023-05-21T11:03:37.421Z,99879.59
2023-05-21T11:06:06.672Z,99868.03
2023-05-21T11:08:36.296Z,99860.38
2023-05-21T11:11:06.266Z,99866.59
2023-05-21T11:13:49.295Z,99867.78
2023-05-21T11:16:18.367Z,99847.22
2023-05-21T11:19:00.233Z,99861.44
2023-05-21T11:21:31.962Z,99880.47
2023-05-21T11:24:06.538Z,99870.94
2023-05-21T11:27:05.777Z,99875.75
2023-05-21T11:29:49.277Z,99864.66
2023-05-21T11:32:20.773Z,99868.00
2023-05-21T11:34:49.773Z,99869.66
2023-05-21T11:37:27.856Z,99867.88
2023-05-21T11:39:56.904Z,99864.66
2023-05-21T11:42:36.541Z,99867.91
2023-05-21T11:45:05.697Z,99868.31
2023-05-21T11:47:34.200Z,99861.88
2023-05-21T11:50:03.335Z,99850.34
2023-05-21T11:52:33.152Z,99852.28
2023-05-21T11:55:01.784Z,99856.25
2023-05-21T11:57:32.033Z,99861.66
2023-05-21T12:00:11.145Z,99848.81
2023-05-21T12:02:39.341Z,99848.59
2023-05-21T12:05:10.191Z,99842.97
2023-05-21T12:07:38.684Z,99837.13
2023-05-21T12:10:08.122Z,99844.00
2023-05-21T12:12:49.886Z,99840.66
2023-05-21T12:15:25.259Z,99843.94
2023-05-21T12:17:53.987Z,99856.97
2023-05-21T12:20:23.402Z,99839.59
2023-05-21T12:22:51.578Z,99834.72
2023-05-21T12:25:21.257Z,99827.81
2023-05-21T12:27:52.800Z,99828.13
2023-05-21T12:30:22.031Z,99835.03
2023-05-21T12:32:52.812Z,99828.78
2023-05-21T12:35:24.681Z,99831.81
2023-05-21T12:37:53.098Z,99819.44
2023-05-21T12:40:22.475Z,99824.78
2023-05-21T12:42:51.062Z,99819.97
2023-05-21T12:45:21.158Z,99820.09
2023-05-21T12:47:56.592Z,99807.81
2023-05-21T12:50:25.084Z,99811.47
2023-05-21T12:52:56.875Z,99809.91
2023-05-21T12:55:26.842Z,99807.38
2023-05-21T12:58:08.178Z,99806.09
2023-05-21T13:00:36.943Z,99807.16
2023-05-21T13:03:07.492Z,99799.69
2023-05-21T13:05:35.911Z,99796.66
2023-05-21T13:08:04.335Z,99788.78
2023-05-21T13:10:32.513Z,99795.16
2023-05-21T13:13:00.702Z,99782.56
2023-05-21T13:15:28.995Z,99782.78
2023-05-21T13:17:58.976Z,99785.06
2023-05-21T13:20:28.532Z,99783.94
2023-05-21T13:22:56.758Z,99780.53
2023-05-21T13:25:29.054Z,99785.47
2023-05-21T13:27:57.672Z,99779.19
2023-05-21T13:30:25.769Z,99774.41
2023-05-21T13:32:54.226Z,99768.00
2023-05-21T13:35:22.756Z,99759.03
2023-05-21T13:37:52.574Z,99764.50
2023-05-21T13:40:21.192Z,99765.78
2023-05-21T13:42:51.066Z,99759.41
2023-05-21T13:45:20.968Z,99757.44
2023-05-21T13:47:49.538Z,99753.94
2023-05-21T13:50:18.030Z,99760.75
2023-05-21T13:52:46.665Z,99754.75
2023-05-21T13:55:16.956Z,99757.78
2023-05-21T13:57:45.992Z,99756.53
2023-05-21T14:00:16.273Z,99746.16
2023-05-21T14:02:45.042Z,99753.88
2023-05-21T14:05:14.010Z,99759.06
2023-05-21T14:07:42.929Z,99748.44
2023-05-21T14:10:11.867Z,99748.66
2023-05-21T14:12:42.216Z,99742.72
2023-05-21T14:15:11.067Z,99750.88
2023-05-21T14:17:42.421Z,99745.47
2023-05-21T14:20:11.593Z,99752.31
2023-05-21T14:22:40.099Z,99755.22
2023-05-21T14:25:08.917Z,99754.03
2023-05-21T14:27:38.633Z,99747.81
2023-05-21T14:30:09.591Z,99738.03
2023-05-21T14:32:37.936Z,99740.91
2023-05-21T14:35:07.032Z,99730.94
2023-05-21T14:37:35.160Z,99733.50
2023-05-21T14:40:03.448Z,99735.59
2023-05-21T14:42:32.123Z,99731.06
2023-05-21T14:45:10.856Z,99737.94
2023-05-21T14:47:48.503Z,99727.53
2023-05-21T14:50:17.740Z,99722.56
2023-05-21T14:52:46.129Z,99736.16
2023-05-21T14:55:16.999Z,99731.69
2023-05-21T14:57:45.335Z,99737.53
2023-05-21T15:00:14.328Z,99721.13
2023-05-21T15:02:42.800Z,99727.41
2023-05-21T15:05:12.505Z,99720.19
2023-05-21T15:07:40.713Z,99721.78
2023-05-21T15:10:10.250Z,99712.47
2023-05-21T15:12:38.334Z,99722.41
2023-05-21T15:15:07.584Z,99721.22
2023-05-21T15:17:36.044Z,99721.44
2023-05-21T15:20:04.800Z,99718.19
2023-05-21T15:22:35.068Z,99717.72
2023-05-21T15:25:03.713Z,99718.47
2023-05-21T15:27:31.887Z,99714.34
2023-05-21T15:30:00.427Z,99714.34
2023-05-21T15:32:28.703Z,99709.81
2023-05-21T15:34:56.889Z,99717.66
2023-05-21T15:37:25.390Z,99704.66
2023-05-21T15:39:54.942Z,99715.25
2023-05-21T15:42:23.036Z,99712.34
2023-05-21T15:44:51.231Z,99718.88
2023-05-21T15:47:19.477Z,99717.09
2023-05-21T15:49:47.732Z,99718.56
2023-05-21T15:52:15.839Z,99715.94
2023-05-21T15:54:43.952Z,99725.19
2023-05-21T15:57:13.584Z,99719.69
2023-05-21T15:59:41.734Z,99723.53
2023-05-21T16:02:10.234Z,99733.88
2023-05-21T16:04:38.407Z,99720.22
2023-05-21T16:07:06.791Z,99722.38
2023-05-21T16:09:35.542Z,99722.00
2023-05-21T16:12:03.732Z,99725.78
2023-05-21T16:14:33.215Z,99725.19
2023-05-21T16:17:01.468Z,99721.75
2023-05-21T16:19:30.403Z,99716.34
2023-05-21T16:21:59.175Z,99725.34
2023-05-21T16:24:27.369Z,99726.78
2023-05-21T16:26:55.544Z,99726.69
2023-05-21T16:29:23.697Z,99731.63
2023-05-21T16:31:53.200Z,99722.25
2023-05-21T16:34:21.384Z,99731.50
2023-05-21T16:36:49.544Z,99730.56
2023-05-21T16:39:17.674Z,99734.69
2023-05-21T16:41:45.905Z,99738.78
2023-05-21T16:44:14.138Z,99736.72
2023-05-21T16:46:42.323Z,99737.44
2023-05-21T16:49:11.853Z,99742.53
2023-05-21T16:51:39.918Z,99742.53
2023-05-21T16:54:08.089Z,99749.41
2023-05-21T16:56:36.203Z,99746.09
2023-05-21T16:59:04.279Z,99742.09
2023-05-21T17:01:32.433Z,99745.91
2023-05-21T17:04:00.703Z,99734.44
2023-05-21T17:06:30.535Z,99750.72
2023-05-21T17:08:58.656Z,99751.28
2023-05-21T17:11:30.743Z,99747.09
2023-05-21T17:13:58.886Z,99745.09
2023-05-21T17:16:27.272Z,99749.56
2023-05-21T17:18:55.471Z,99753.66
2023-05-21T17:21:23.822Z,99746.94
2023-05-21T17:23:53.472Z,99747.22
2023-05-21T17:26:22.105Z,99750.81
2023-05-21T17:28:50.190Z,99746.97
2023-05-21T17:31:18.486Z,99752.59
2023-05-21T17:33:46.766Z,99750.16
2023-05-21T17:36:18.032Z,99749.59
2023-05-21T17:38:46.131Z,99746.06
2023-05-21T17:41:18.858Z,99741.75
2023-05-21T17:43:47.214Z,99748.16
2023-05-21T17:46:17.656Z,99752.94
2023-05-21T17:48:45.887Z,99748.44
2023-05-21T17:51:14.603Z,99753.03
2023-05-21T17:53:45.443Z,99754.09
2023-05-21T17:56:13.594Z,99757.31
2023-05-21T17:58:43.197Z,99755.19
2023-05-21T18:01:11.376Z,99754.19
2023-05-21T18:03:39.681Z,99755.03
2023-05-21T18:06:09.530Z,99750.56
2023-05-21T18:08:38.038Z,99751.75
2023-05-21T18:11:07.341Z,99747.41
2023-05-21T18:13:35.635Z,99757.53
2023-05-21T18:16:05.546Z,99753.97
2023-05-21T18:18:34.047Z,99744.75
2023-05-21T18:21:02.252Z,99753.31
2023-05-21T18:23:31.406Z,99751.97
2023-05-21T18:25:59.655Z,99755.28
2023-05-21T18:28:29.527Z,99747.03
2023-05-21T18:31:01.000Z,99750.88
2023-05-21T18:33:31.203Z,99760.88
2023-05-21T18:35:59.477Z,99763.00
2023-05-21T18:38:27.603Z,99764.50
2023-05-21T18:40:55.736Z,99770.00
2023-05-21T18:43:23.850Z,99768.13
2023-05-21T18:45:52.121Z,99763.06
2023-05-21T18:48:20.304Z,99763.72
2023-05-21T18:50:50.127Z,99770.94
2023-05-21T18:53:18.585Z,99762.31
2023-05-21T18:55:46.741Z,99769.16
2023-05-21T18:58:14.932Z,99775.00
2023-05-21T19:00:43.473Z,99781.44
2023-05-21T19:03:11.711Z,99777.38
2023-05-21T19:05:39.923Z,99772.50
2023-05-21T19:08:09.598Z,99769.44
2023-05-21T19:10:39.429Z,99776.78
2023-05-21T19:13:08.249Z,99777.25
2023-05-21T19:15:36.706Z,99776.81
2023-05-21T19:18:05.002Z,99778.00
2023-05-21T19:20:33.118Z,99785.34
2023-05-21T19:23:01.492Z,99793.53
2023-05-21T19:25:31.661Z,99786.63
2023-05-21T19:28:05.784Z,99792.28
2023-05-21T19:30:36.518Z,99788.25
2023-05-21T19:33:05.284Z,99791.25
2023-05-21T19:35:33.637Z,99797.38
2023-05-21T19:38:04.118Z,99793.06
2023-05-21T19:40:35.189Z,99799.75
2023-05-21T19:43:03.969Z,99796.38
2023-05-21T19:45:32.189Z,99801.59
2023-05-21T19:48:00.806Z,99797.94
2023-05-21T19:50:29.176Z,99793.19
2023-05-21T19:52:58.309Z,99797.00
2023-05-21T19:55:26.654Z,99795.31
2023-05-21T19:57:56.262Z,99799.91
2023-05-21T20:00:25.861Z,99801.22
2023-05-21T20:02:56.134Z,99795.47
2023-05-21T20:05:24.461Z,99794.59
2023-05-21T20:07:52.973Z,99801.84
2023-05-21T20:10:21.158Z,99798.94
2023-05-21T20:12:49.245Z,99803.22
2023-05-21T20:15:18.943Z,99799.75
2023-05-21T20:17:50.522Z,99804.13
2023-05-21T20:20:18.979Z,99798.78
2023-05-21T20:22:47.265Z,99799.34
2023-05-21T20:25:15.879Z,99800.66
2023-05-21T20:27:44.237Z,99800.78
2023-05-21T20:30:15.247Z,99800.09
2023-05-21T20:32:45.180Z,99808.69
2023-05-21T20:35:14.955Z,99805.31
2023-05-21T20:37:43.116Z,99803.22
2023-05-21T20:40:14.779Z,99799.84
2023-05-21T20:42:45.217Z,99811.50
2023-05-21T20:45:15.967Z,99801.81
2023-05-21T20:47:45.743Z,99806.84
2023-05-21T20:50:14.730Z,99802.22
2023-05-21T20:52:45.519Z,99794.78
2023-05-21T20:55:15.314Z,99799.16
2023-05-21T20:57:43.417Z,99809.97
2023-05-21T21:00:13.504Z,99805.19
2023-05-21T21:02:42.037Z,99786.19
2023-05-21T21:05:12.874Z,99790.94
2023-05-21T21:07:42.206Z,99786.31
2023-05-21T21:10:11.225Z,99787.31
2023-05-21T21:12:39.769Z,99785.59
2023-05-21T21:15:09.663Z,99787.88
2023-05-21T21:17:38.254Z,99787.47
2023-05-21T21:20:07.891Z,99796.91
2023-05-21T21:22:37.498Z,99793.81
2023-05-21T21:25:06.430Z,99799.88
2023-05-21T21:27:34.879Z,99796.66
2023-05-21T21:30:03.059Z,99793.00
2023-05-21T21:32:31.164Z,99797.63
2023-05-21T21:34:59.492Z,99796.09
2023-05-21T21:37:29.558Z,99798.34
2023-05-21T21:39:59.033Z,99793.31
2023-05-21T21:42:27.210Z,99794.28
2023-05-21T21:44:55.420Z,99790.66
2023-05-21T21:47:23.586Z,99805.69
2023-05-21T21:49:54.398Z,99805.69
2023-05-21T21:52:22.704Z,99812.97
2023-05-21T21:54:50.792Z,99823.19
2023-05-21T21:57:20.295Z,99820.50
2023-05-21T21:59:48.907Z,99811.34
2023-05-21T22:02:18.397Z,99819.94
2023-05-21T22:04:46.752Z,99816.22
2023-05-21T22:07:17.158Z,99818.28
2023-05-21T22:09:45.917Z,99811.03
2023-05-21T22:12:14.610Z,99813.28
2023-05-21T22:14:45.016Z,99814.66
2023-05-21T22:17:14.124Z,99818.03
2023-05-21T22:19:43.089Z,99811.53
2023-05-21T22:22:12.212Z,99822.94
2023-05-21T22:24:40.394Z,99821.94
2023-05-21T22:27:08.537Z,99824.72
2023-05-21T22:29:36.646Z,99833.44
2023-05-21T22:32:06.633Z,99832.59
2023-05-21T22:34:34.817Z,99833.88
2023-05-21T22:37:02.912Z,99827.84
2023-05-21T22:39:31.078Z,99828.97
2023-05-21T22:41:59.665Z,99834.19
2023-05-21T22:44:27.870Z,99832.38
2023-05-21T22:47:00.368Z,99825.16
2023-05-21T22:49:30.492Z,99828.25
2023-05-21T22:51:59.493Z,99836.50
2023-05-21T22:54:27.586Z,99829.78
2023-05-21T22:56:55.718Z,99839.88
2023-05-21T22:59:23.788Z,99831.34
2023-05-21T23:01:57.188Z,99829.63
2023-05-21T23:04:35.798Z,99833.44
2023-05-21T23:07:12.634Z,99832.75
2023-05-21T23:09:41.324Z,99827.00
2023-05-21T23:12:11.079Z,99829.97
2023-05-21T23:14:39.206Z,99831.94
2023-05-21T23:17:07.696Z,99830.81
2023-05-21T23:19:35.969Z,99835.72
2023-05-21T23:22:04.147Z,99836.41
2023-05-21T23:24:35.208Z,99837.97
2023-05-21T23:27:03.752Z,99837.94
2023-05-21T23:29:32.077Z,99832.88
2023-05-21T23:32:01.172Z,99838.75
2023-05-21T23:34:29.479Z,99830.88
2023-05-21T23:36:59.429Z,99827.06
2023-05-21T23:39:28.704Z,99827.22
2023-05-21T23:41:58.272Z,99821.59
2023-05-21T23:44:26.547Z,99819.78
2023-05-21T23:46:54.672Z,99824.66
2023-05-21T23:49:22.837Z,99816.25
2023-05-21T23:51:51.108Z,99820.31
2023-05-21T23:54:19.284Z,99815.25
2023-05-21T23:56:47.624Z,99816.66
2023-05-21T23:59:18.493Z,99813.41
